Pelly Island Automatic Weather Reporting System

CWND · 加拿大

TAF CWND · Pelly Island Automatic Weather Reporting System

使用的TAF站离机场有52 NM的距离
2024年7月16日 19:002024年7月16日 23:00有效
时间
星期二
19:00
>40%
星期二
20:00
>40%
星期二
21:00
>40%
星期二
22:00
>40%
代码
MVFR
MVFR
MVFR
MVFR
天气
灰蒙蒙
灰蒙蒙
灰蒙蒙
灰蒙蒙
能见度
6 mi+
6 mi+
6 mi+
6 mi+
天花板
1.000 ft
1.000 ft
1.000 ft
1.000 ft
030°
030°
030°
030°
060°
060°
060°
060°
速度
12 kt
12 kt
12 kt
12 kt
阵风
温度/星期日

原版的

TAF CYUB 170040Z 1701/1705 03012KT P6SM FEW010 OVC060
TEMPO 1701/1705 BKN010 OVC060
BECMG 1703/1705 06008KT RMK NXT FCST BY 171500Z

TAF Pelly Island Automatic Weather Reporting System

该字段位于加拿大中。 该机场位于纬度69,63333和经度-135,43333。 本场的ICAO机场代码为CWND。 机场在Edmonton FIR中。

该航空气象观测是针对Tuktoyaktuk / James Gruben Airport在2024年7月16日 18:40, 当地时间进行的。 从2024年7月16日 19:00到2024年7月16日 23:00, 当地时间有效.

预报

  • 在星期二 19:00和23:00之间

    • 风: 风来自030°方向,速度为12 kt。
    • 能见度: 6 mi 或者更多
    • 乌云: 几云在1.000 ft的高度 和 乌云密布在6.000 ft的高度.
  • 暂时在星期二 19:00和23:00之间

    • 乌云: 碎云在1.000 ft的高度 和 乌云密布在6.000 ft的高度.
  • 介于星期二 21:00和23:00之间

    • 风: 风来自060°方向,速度为8 kt。

白天

今天,太阳从17:00升起,在17:00降落。 这适用于Pelly Island Automatic Weather Reporting System,世界夏令时可能有所不同。 当地时间与世界标准时间之间的时差为-6 小时。 夏令时目前正在进行中。

报告变更